Latest Weather Observations for Cooktown

IDQ60801

Issued at 4:22 pm EST Saturday 5 December 2020 (issued every 10 minutes, with the page automatically refreshed every 10 minutes)

About weather observations | Map of weather stations | Latest weather observations for QLD | Other Formats
Station Details ID: 031209 Name: COOKTOWN AIRPORT Lat: -15.45 Lon: 145.19 Height: 4.8 m
Data from the previous 72 hours. | See also: Recent months at Cooktown
Date/Time
EST
Temp
°C
App
Temp
°C
Dew
Point
°C
Rel
Hum
%
Delta-T
°C
Wind Press
QNH
hPa
Press
MSL
hPa
Rain since
9am
mm
Dir  Spd
km/h
Gust
km/h
Spd
kts
Gust
kts
05/04:00pm 29.7 29.2 21.4 61 5.6 E 26 33 14 18 1009.3 1009.2 0.0
05/03:30pm 29.7 28.7 20.5 57 6.1 E 26 33 14 18 1009.4 1009.3 0.0
05/03:00pm 30.3 30.0 21.1 58 6.2 E 24 32 13 17 1009.6 1009.5 0.0
05/02:30pm 30.6 30.1 21.4 58 6.2 E 26 33 14 18 1009.8 1009.7 0.0
05/02:00pm 30.0 29.5 20.0 55 6.6 ESE 22 32 12 17 1010.2 1010.1 0.0
05/01:30pm 31.3 31.6 21.5 56 6.6 ESE 22 30 12 16 1010.6 1010.5 0.0
05/01:00pm 30.6 29.8 20.8 56 6.5 ESE 26 32 14 17 1010.9 1010.8 0.0
05/12:30pm 30.5 29.5 20.4 54 6.7 E 26 35 14 19 1011.4 1011.3 0.0
05/12:00pm 30.6 29.6 20.5 54 6.7 ESE 26 32 14 17 1011.9 1011.8 0.0
05/11:30am 30.2 29.3 19.9 54 6.8 E 24 33 13 18 1012.1 1012.0 0.0
05/11:00am 30.5 30.5 21.0 57 6.3 ESE 22 32 12 17 1012.5 1012.4 0.0
05/10:30am 29.6 28.9 19.6 55 6.5 E 22 35 12 19 1012.9 1012.8 0.0
05/10:00am 29.0 29.2 20.2 59 5.8 SE 19 26 10 14 1013.1 1013.0 0.0
05/09:30am 28.9 29.3 20.6 61 5.5 SE 19 26 10 14 1013.0 1012.9 0.0
05/09:00am 29.6 30.2 21.0 60 5.7 SE 19 28 10 15 1013.0 1012.9 0.0
05/08:30am 29.0 29.1 19.9 58 6.0 ESE 19 28 10 15 1013.0 1012.9 0.0
05/08:00am 28.7 29.3 21.0 63 5.1 SE 19 28 10 15 1012.6 1012.5 0.0
05/07:30am 27.6 28.3 21.2 68 4.3 SE 19 28 10 15 1012.4 1012.3 0.0
05/07:00am 26.4 29.5 21.4 74 3.3 S 7 11 4 6 1012.0 1011.9 0.0
05/06:30am 25.9 28.1 21.1 75 3.2 SE 11 15 6 8 1011.6 1011.5 0.0
05/06:00am 25.6 26.8 20.6 74 3.3 SE 15 24 8 13 1011.2 1011.1 0.0
05/05:30am 24.3 26.2 20.6 80 2.4 ESE 11 15 6 8 1010.7 1010.6 0.0
05/05:00am 23.9 26.8 20.6 82 2.2 ESE 6 9 3 5 1010.4 1010.3 0.0
05/04:30am 24.1 26.8 20.2 79 2.5 ESE 6 7 3 4 1010.2 1010.1 0.0
05/04:00am 24.4 27.1 20.3 78 2.7 SE 6 7 3 4 1010.0 1009.9 0.0
05/03:30am 24.7 27.5 20.4 77 2.8 SE 6 7 3 4 1010.0 1009.9 0.0
05/03:00am 25.3 27.9 20.5 75 3.1 SE 7 9 4 5 1010.2 1010.1 0.0
05/02:30am 25.8 28.4 21.2 76 3.0 SE 9 15 5 8 1010.3 1010.2 0.0
05/02:00am 26.0 28.2 21.2 75 3.2 SE 11 17 6 9 1010.4 1010.3 0.0
05/01:30am 26.1 28.4 21.3 75 3.2 SE 11 19 6 10 1010.7 1010.6 0.0
05/01:00am 25.9 28.3 20.9 74 3.3 ESE 9 13 5 7 1011.1 1011.0 0.0
05/12:30am 26.0 28.1 21.0 74 3.3 SE 11 15 6 8 1011.4 1011.3 0.0
05/12:00am 25.8 27.7 20.6 73 3.4 ESE 11 17 6 9 1011.8 1011.7 0.0
 
Date/Time
EST
Temp
°C
App
Temp
°C
Dew
Point
°C
Rel
Hum
%
Delta-T
°C
Wind Press
QNH
hPa
Press
MSL
hPa
Rain since
9am
mm
Dir  Spd
km/h
Gust
km/h
Spd
kts
Gust
kts
04/11:30pm 26.5 28.5 20.8 71 3.8 SE 11 17 6 9 1012.1 1012.0 0.0
04/11:00pm 26.4 28.4 20.7 71 3.7 SE 11 20 6 11 1012.4 1012.3 0.0
04/10:30pm 26.5 28.0 20.6 70 3.9 ESE 13 19 7 10 1012.5 1012.4 0.0
04/10:00pm 26.6 28.3 20.9 71 3.8 SE 13 19 7 10 1012.4 1012.3 0.0
04/09:30pm 26.8 27.7 20.9 70 3.9 ESE 17 24 9 13 1012.2 1012.1 0.0
04/09:00pm 26.9 27.9 21.0 70 3.9 ESE 17 24 9 13 1012.0 1011.9 0.0
04/08:30pm 27.1 27.6 20.9 69 4.1 ESE 19 30 10 16 1011.7 1011.6 0.0
04/08:00pm 27.1 28.8 21.6 72 3.7 ESE 15 22 8 12 1011.5 1011.4 0.0
04/07:30pm 27.0 28.6 21.5 72 3.7 ESE 15 28 8 15 1011.2 1011.1 0.0
04/07:00pm 27.4 27.9 21.2 69 4.1 ESE 20 32 11 17 1010.9 1010.8 0.0
04/06:30pm 27.4 27.9 21.2 69 4.1 ESE 20 33 11 18 1010.5 1010.4 0.0
04/06:00pm 28.0 27.8 21.3 67 4.5 ESE 24 32 13 17 1010.2 1010.1 0.0
04/05:30pm 28.5 29.2 22.3 69 4.2 ESE 22 37 12 20 1010.0 1009.9 0.0
04/05:00pm 28.3 28.7 21.8 68 4.4 ESE 22 35 12 19 1009.9 1009.8 0.0
04/04:30pm 28.5 27.6 21.5 66 4.7 ESE 28 39 15 21 1009.6 1009.5 0.0
04/04:00pm 28.9 27.4 21.7 65 4.8 ESE 32 43 17 23 1009.7 1009.6 0.0
04/03:30pm 30.1 28.5 21.5 60 5.8 ESE 32 41 17 22 1009.9 1009.8 0.0
04/03:00pm 29.5 28.7 21.7 63 5.2 ESE 28 43 15 23 1010.0 1009.9 0.0
04/02:30pm 30.3 28.9 21.9 60 5.7 ESE 32 41 17 22 1010.3 1010.2 0.0
04/02:00pm 30.3 29.3 21.9 60 5.7 ESE 30 41 16 22 1010.6 1010.5 0.0
04/01:30pm 30.0 28.0 20.8 57 6.1 ESE 32 43 17 23 1010.9 1010.8 0.0
04/01:00pm 29.5 27.8 21.4 61 5.4 ESE 32 43 17 23 1011.2 1011.1 0.0
04/12:30pm 29.6 29.4 21.3 61 5.6 ESE 24 37 13 20 1011.6 1011.5 0.0
04/12:00pm 29.7 27.9 21.1 60 5.7 ESE 32 44 17 24 1012.0 1011.9 0.0
04/11:30am 30.0 29.1 21.4 60 5.8 ESE 28 39 15 21 1012.3 1012.2 0.0
04/11:00am 30.8 28.6 20.4 54 6.9 ESE 32 43 17 23 1012.8 1012.7 0.0
04/10:30am 30.6 29.7 21.4 58 6.2 ESE 28 39 15 21 1013.0 1012.9 0.0
04/10:00am 30.7 30.1 22.0 59 5.9 ESE 28 39 15 21 1013.4 1013.3 0.0
04/09:30am 30.4 29.4 22.0 60 5.7 E 30 37 16 20 1013.4 1013.3 0.0
04/09:00am 29.7 28.0 21.4 61 5.6 E 32 43 17 23 1013.3 1013.2 0.0
04/08:30am 29.7 29.6 21.4 61 5.6 ESE 24 37 13 20 1013.2 1013.1 0.0
04/08:00am 29.3 28.4 21.5 63 5.2 E 28 37 15 20 1013.1 1013.0 0.0
04/07:30am 27.8 27.9 21.1 67 4.4 ESE 22 35 12 19 1013.0 1012.9 0.0
04/07:00am 27.5 27.8 21.5 70 4.0 ESE 22 33 12 18 1012.8 1012.7 0.0
04/06:30am 27.2 28.0 21.7 72 3.7 ESE 20 35 11 19 1012.4 1012.3 0.0
04/06:00am 26.5 27.4 21.5 74 3.3 ESE 19 30 10 16 1011.8 1011.7 0.0
04/05:30am 26.6 27.5 21.6 74 3.3 ESE 19 30 10 16 1011.5 1011.4 0.0
04/05:00am 26.4 27.6 21.4 74 3.3 ESE 17 26 9 14 1011.3 1011.2 0.0
04/04:30am 26.2 27.4 21.4 75 3.2 ESE 17 32 9 17 1011.1 1011.0 0.0
04/04:00am 26.2 26.7 21.2 74 3.3 ESE 20 28 11 15 1010.8 1010.7 0.0
04/03:30am 26.5 27.9 21.9 76 3.1 ESE 17 24 9 13 1011.0 1010.9 0.0
04/03:00am 26.4 27.7 21.6 75 3.2 ESE 17 30 9 16 1011.2 1011.1 0.0
04/02:30am 26.6 27.5 21.6 74 3.3 SE 19 30 10 16 1011.3 1011.2 0.0
04/02:00am 26.7 27.6 21.5 73 3.5 SE 19 30 10 16 1011.6 1011.5 0.0
04/01:30am 26.7 27.4 21.5 73 3.5 SE 20 35 11 19 1011.9 1011.8 0.0
04/01:00am 26.6 27.9 21.6 74 3.3 ESE 17 28 9 15 1012.2 1012.1 0.0
04/12:30am 26.6 27.4 21.4 73 3.5 ESE 19 30 10 16 1012.6 1012.5 0.0
04/12:00am 26.8 28.1 21.6 73 3.5 ESE 17 28 9 15 1013.0 1012.9 0.0
 
Date/Time
EST
Temp
°C
App
Temp
°C
Dew
Point
°C
Rel
Hum
%
Delta-T
°C
Wind Press
QNH
hPa
Press
MSL
hPa
Rain since
9am
mm
Dir  Spd
km/h
Gust
km/h
Spd
kts
Gust
kts
03/11:30pm 26.7 28.0 21.7 74 3.3 SE 17 24 9 13 1013.4 1013.3 0.0
03/11:00pm 26.8 27.4 21.3 72 3.7 ESE 20 33 11 18 1013.7 1013.6 0.0
03/10:30pm 26.8 27.7 21.6 73 3.5 ESE 19 26 10 14 1013.9 1013.8 0.0
03/10:00pm 26.9 27.5 21.4 72 3.7 ESE 20 28 11 15 1013.6 1013.5 0.0
03/09:30pm 26.7 27.8 21.2 72 3.6 ESE 17 26 9 14 1013.3 1013.2 0.0
03/09:00pm 26.9 27.5 21.4 72 3.7 ESE 20 30 11 16 1013.3 1013.2 0.0
03/08:30pm 27.1 27.8 21.6 72 3.7 ESE 20 32 11 17 1013.0 1012.9 0.0
03/08:00pm 27.0 27.7 21.5 72 3.7 ESE 20 39 11 21 1012.8 1012.7 0.0
03/07:30pm 26.8 28.1 21.6 73 3.5 SE 17 28 9 15 1012.5 1012.4 0.0
03/07:00pm 27.0 28.2 21.5 72 3.7 SE 17 22 9 12 1012.1 1012.0 0.0
03/06:30pm 27.3 28.2 21.6 71 3.8 SE 19 30 10 16 1011.9 1011.8 0.0
03/06:00pm 28.0 28.9 21.5 67 4.3 SE 19 30 10 16 1011.7 1011.6 0.0
03/05:30pm 28.0 27.7 21.1 66 4.6 SE 24 35 13 19 1011.8 1011.7 0.0
03/05:00pm 28.2 28.3 21.2 65 4.7 SE 22 39 12 21 1011.8 1011.7 0.0
03/04:30pm 29.1 28.4 21.1 62 5.3 ESE 26 41 14 22 1011.6 1011.5 0.0
03/04:05pm 29.5 28.5 21.2 61 5.5 ESE 28 48 15 26 1011.5 1011.4 0.0
03/04:00pm 30.2 30.0 22.1 62 5.5 ESE 26 39 14 21 1011.5 1011.4 0.0
03/03:30pm 29.2 27.9 20.6 59 5.7 SE 28 46 15 25 1011.3 1011.2 0.0
03/03:14pm 30.3 29.8 22.2 62 5.5 ESE 28 46 15 25 1011.4 1011.3 0.0
03/03:00pm 30.7 30.1 22.0 59 5.9 SE 28 41 15 22 1011.5 1011.4 0.0
03/02:47pm 30.2 29.3 22.1 62 5.5 SE 30 48 16 26 1011.6 1011.5 0.0
03/02:30pm 29.3 27.8 21.8 64 5.0 ESE 32 44 17 24 1011.8 1011.7 0.0
03/02:00pm 30.7 29.7 21.2 57 6.4 SE 28 41 15 22 1011.9 1011.8 0.0
03/01:48pm 30.7 29.6 21.8 59 6.0 ESE 30 48 16 26 1012.1 1012.0 0.0
03/01:30pm 30.3 28.2 21.7 60 5.8 ESE 35 46 19 25 1012.2 1012.1 0.0
03/01:00pm 31.1 30.5 22.7 61 5.7 ESE 30 43 16 23 1012.3 1012.2 0.0
03/12:30pm 29.5 30.3 23.2 69 4.3 SE 24 35 13 19 1012.8 1012.7 0.0
03/12:00pm 29.3 29.4 21.8 64 5.0 ESE 24 39 13 21 1013.1 1013.0 0.0
03/11:30am 29.6 29.5 22.3 65 4.9 ESE 26 39 14 21 1013.2 1013.1 0.0
03/11:00am 29.4 30.0 21.4 62 5.4 ESE 20 32 11 17 1013.3 1013.2 0.0
03/10:40am 30.0 29.4 22.7 65 5.0 ESE 30 50 16 27 1013.1 1013.0 0.0
03/10:36am 29.5 28.7 21.7 63 5.2 ESE 28 50 15 27 1013.0 1012.9 0.0
03/10:30am 29.9 31.3 22.9 66 4.8 ESE 20 30 11 16 1013.1 1013.0 0.0
03/10:00am 29.8 30.5 23.0 67 4.7 ESE 24 35 13 19 1013.0 1012.9 0.0
03/09:30am 29.3 28.7 23.3 70 4.1 ESE 32 50 17 27 1012.7 1012.6 0.0
03/09:24am 29.6 29.0 23.3 69 4.3 E 32 50 17 27 1012.7 1012.6 0.0
03/09:00am 29.7 29.8 23.2 68 4.5 E 28 37 15 20 1012.3 1012.2 3.4
03/08:30am 28.4 28.1 23.3 74 3.5 ESE 30 41 16 22 1012.2 1012.1 3.4
03/08:00am 28.6 28.8 23.5 74 3.5 ESE 28 35 15 19 1011.9 1011.8 3.4
03/07:30am 28.9 29.2 24.2 76 3.3 E 30 43 16 23 1011.4 1011.3 3.4
03/07:26am 28.7 29.2 24.0 76 3.3 E 28 39 15 21 1011.3 1011.2 3.4
03/07:07am 28.0 29.1 23.6 77 3.0 ESE 24 33 13 18 1011.2 1011.1 3.4
03/07:00am 27.6 28.7 23.6 79 2.7 ESE 24 33 13 18 1011.1 1011.0 3.4
03/06:30am 27.5 29.0 23.7 80 2.6 ESE 22 33 12 18 1010.9 1010.8 3.4
03/06:00am 27.0 28.1 23.7 82 2.3 ESE 24 37 13 20 1010.5 1010.4 3.4
03/05:41am 27.0 28.1 23.7 82 2.3 ESE 24 33 13 18 1010.3 1010.2 3.4
03/05:30am 27.0 28.6 23.9 83 2.1 ESE 22 35 12 19 1010.2 1010.1 3.4
03/05:07am 27.1 29.1 24.0 83 2.1 ESE 20 30 11 16 1010.0 1009.9 3.4
03/05:00am 27.0 28.3 24.1 84 2.0 ESE 24 32 13 17 1009.9 1009.8 3.4
03/04:59am 27.0 28.7 24.1 84 2.0 ESE 22 32 12 17 1009.9 1009.8 3.4
03/04:30am 26.7 28.8 23.8 84 2.0 ESE 19 28 10 15 1009.8 1009.7 3.4
03/04:00am 27.1 29.3 24.2 84 2.0 ESE 20 28 11 15 1009.9 1009.8 3.4
03/03:30am 27.2 28.8 23.9 82 2.3 ESE 22 30 12 16 1010.1 1010.0 3.4
03/03:12am 27.1 29.3 24.2 84 2.0 ESE 20 30 11 16 1010.3 1010.2 3.4
03/03:00am 27.2 28.9 24.1 83 2.1 ESE 22 32 12 17 1010.4 1010.3 3.4
03/02:30am 27.2 29.3 24.1 83 2.1 ESE 20 28 11 15 1010.5 1010.4 3.4
03/02:00am 27.1 28.9 24.2 84 2.0 ESE 22 35 12 19 1010.8 1010.7 3.4
03/01:45am 27.2 28.9 24.1 83 2.1 ESE 22 32 12 17 1011.0 1010.9 3.4
03/01:30am 27.3 29.5 24.2 83 2.1 ESE 20 30 11 16 1011.1 1011.0 3.4
03/01:04am 27.2 29.4 24.3 84 2.0 ESE 20 28 11 15 1011.5 1011.4 3.4
03/01:00am 27.2 29.4 24.3 84 2.0 ESE 20 28 11 15 1011.6 1011.5 3.4
03/12:30am 27.3 29.6 24.4 84 2.0 ESE 20 26 11 14 1011.7 1011.6 3.4
03/12:00am 27.3 29.7 24.2 83 2.1 ESE 19 26 10 14 1012.1 1012.0 3.4
 
Date/Time
EST
Temp
°C
App
Temp
°C
Dew
Point
°C
Rel
Hum
%
Delta-T
°C
Wind Press
QNH
hPa
Press
MSL
hPa
Rain since
9am
mm
Dir  Spd
km/h
Gust
km/h
Spd
kts
Gust
kts
02/11:30pm 27.3 30.5 24.4 84 2.0 ESE 15 20 8 11 1012.3 1012.2 3.4
02/11:00pm 27.3 29.5 24.0 82 2.3 ESE 19 26 10 14 1012.5 1012.4 3.4
02/10:30pm 27.4 30.1 24.1 82 2.3 ESE 17 24 9 13 1012.6 1012.5 3.4
02/10:00pm 27.1 30.0 23.8 82 2.3 ESE 15 22 8 12 1012.3 1012.2 3.4
02/09:30pm 27.2 29.8 23.9 82 2.3 ESE 17 26 9 14 1012.2 1012.1 3.4
02/09:00pm 27.0 30.6 24.3 85 1.9 ESE 13 20 7 11 1012.1 1012.0 3.4
02/08:30pm 27.0 29.8 24.3 85 1.9 ESE 17 24 9 13 1011.9 1011.8 3.4
02/08:00pm 26.9 30.4 24.2 85 1.9 SE 13 19 7 10 1012.0 1011.9 3.2
02/07:30pm 27.0 30.3 24.5 86 1.7 ESE 15 22 8 12 1011.7 1011.6 3.2
02/07:00pm 26.8 30.5 24.5 87 1.6 SE 13 19 7 10 1011.4 1011.3 3.2
02/06:30pm 26.9 30.2 24.5 87 1.7 SE 15 22 8 12 1011.1 1011.0 3.2
02/06:00pm 27.6 30.1 24.4 83 2.2 ESE 19 26 10 14 1010.9 1010.8 3.0
02/05:30pm 27.4 30.4 24.7 85 1.9 ESE 17 20 9 11 1010.8 1010.7 3.0
02/05:00pm 28.1 31.1 25.3 85 2.0 ESE 19 26 10 14 1010.7 1010.6 3.0
02/04:36pm 27.4 31.8 25.6 90 1.3 ESE 13 20 7 11 1010.5 1010.4 3.0
02/04:30pm 26.9 30.6 25.1 90 1.3 ESE 15 20 8 11 1010.4 1010.3 3.0

Other formats

Comma delimited format used in spreadsheet applications
http://www.bom.gov.au/fwo/IDQ60801/IDQ60801.95283.axf

JavaScript Object Notation format (JSON) in row-major order
http://www.bom.gov.au/fwo/IDQ60801/IDQ60801.95283.json

Data quality

Most of these data are generated automatically and are frequently updated. Quality checks on data are not normally performed. It is possible for incorrect values to appear. Refer to information at About Latest Weather Observations and please check the disclaimer before using these data.